sensor_id;sensor_type;location;lat;lon;timestamp;P1;durP1;ratioP1;P2;durP2;ratioP2
15968;SDS011;8085;53.472;9.794;2023-04-09T00:00:47;102.03;;;45.63;;
15968;SDS011;8085;53.472;9.794;2023-04-09T00:03:15;97.03;;;45.27;;
15968;SDS011;8085;53.472;9.794;2023-04-09T00:05:42;94.67;;;45.80;;
15968;SDS011;8085;53.472;9.794;2023-04-09T00:08:09;102.20;;;46.47;;
15968;SDS011;8085;53.472;9.794;2023-04-09T00:10:36;90.37;;;44.30;;
15968;SDS011;8085;53.472;9.794;2023-04-09T00:13:03;94.37;;;44.33;;
15968;SDS011;8085;53.472;9.794;2023-04-09T00:15:30;92.17;;;44.27;;
15968;SDS011;8085;53.472;9.794;2023-04-09T00:17:57;99.00;;;45.70;;
15968;SDS011;8085;53.472;9.794;2023-04-09T00:20:26;100.00;;;48.87;;
15968;SDS011;8085;53.472;9.794;2023-04-09T00:22:52;102.87;;;49.73;;
15968;SDS011;8085;53.472;9.794;2023-04-09T00:25:20;97.23;;;47.87;;
15968;SDS011;8085;53.472;9.794;2023-04-09T00:27:47;109.73;;;51.73;;
15968;SDS011;8085;53.472;9.794;2023-04-09T00:30:14;116.47;;;54.53;;
15968;SDS011;8085;53.472;9.794;2023-04-09T00:32:41;132.47;;;56.57;;
15968;SDS011;8085;53.472;9.794;2023-04-09T00:35:08;124.70;;;57.90;;
15968;SDS011;8085;53.472;9.794;2023-04-09T00:37:37;117.60;;;54.40;;
15968;SDS011;8085;53.472;9.794;2023-04-09T00:40:05;116.07;;;53.93;;
15968;SDS011;8085;53.472;9.794;2023-04-09T00:42:32;119.40;;;55.03;;
15968;SDS011;8085;53.472;9.794;2023-04-09T00:44:59;109.83;;;47.70;;
15968;SDS011;8085;53.472;9.794;2023-04-09T00:47:26;95.00;;;46.10;;
15968;SDS011;8085;53.472;9.794;2023-04-09T00:49:55;96.57;;;45.47;;
15968;SDS011;8085;53.472;9.794;2023-04-09T00:52:22;91.87;;;44.70;;
15968;SDS011;8085;53.472;9.794;2023-04-09T00:54:51;88.97;;;41.90;;
15968;SDS011;8085;53.472;9.794;2023-04-09T00:57:18;77.03;;;40.87;;
15968;SDS011;8085;53.472;9.794;2023-04-09T00:59:45;82.00;;;38.17;;
15968;SDS011;8085;53.472;9.794;2023-04-09T01:02:12;69.17;;;36.60;;
15968;SDS011;8085;53.472;9.794;2023-04-09T01:04:40;70.87;;;34.00;;
15968;SDS011;8085;53.472;9.794;2023-04-09T01:07:10;59.20;;;33.23;;
15968;SDS011;8085;53.472;9.794;2023-04-09T01:09:56;67.80;;;33.53;;
15968;SDS011;8085;53.472;9.794;2023-04-09T01:12:31;65.77;;;34.30;;
15968;SDS011;8085;53.472;9.794;2023-04-09T01:15:04;63.40;;;33.07;;
15968;SDS011;8085;53.472;9.794;2023-04-09T01:17:34;65.87;;;34.27;;
15968;SDS011;8085;53.472;9.794;2023-04-09T01:20:17;69.87;;;34.40;;
15968;SDS011;8085;53.472;9.794;2023-04-09T01:22:54;60.73;;;33.87;;
15968;SDS011;8085;53.472;9.794;2023-04-09T01:25:43;58.80;;;31.60;;
15968;SDS011;8085;53.472;9.794;2023-04-09T01:28:21;61.90;;;33.17;;
15968;SDS011;8085;53.472;9.794;2023-04-09T01:30:53;64.40;;;33.73;;
15968;SDS011;8085;53.472;9.794;2023-04-09T01:33:23;66.30;;;33.27;;
15968;SDS011;8085;53.472;9.794;2023-04-09T01:35:50;59.73;;;30.47;;
15968;SDS011;8085;53.472;9.794;2023-04-09T01:38:19;62.50;;;32.63;;
15968;SDS011;8085;53.472;9.794;2023-04-09T01:40:47;63.40;;;33.73;;
15968;SDS011;8085;53.472;9.794;2023-04-09T01:43:16;67.53;;;32.10;;
15968;SDS011;8085;53.472;9.794;2023-04-09T01:45:45;55.70;;;29.13;;
15968;SDS011;8085;53.472;9.794;2023-04-09T01:48:13;61.10;;;29.07;;
15968;SDS011;8085;53.472;9.794;2023-04-09T01:50:41;59.30;;;30.53;;
15968;SDS011;8085;53.472;9.794;2023-04-09T01:53:08;60.07;;;31.13;;
15968;SDS011;8085;53.472;9.794;2023-04-09T01:55:36;60.10;;;30.77;;
15968;SDS011;8085;53.472;9.794;2023-04-09T01:58:03;60.03;;;30.50;;
15968;SDS011;8085;53.472;9.794;2023-04-09T02:00:30;57.47;;;31.53;;
15968;SDS011;8085;53.472;9.794;2023-04-09T02:03:04;60.07;;;30.27;;
15968;SDS011;8085;53.472;9.794;2023-04-09T02:05:35;55.40;;;29.50;;
15968;SDS011;8085;53.472;9.794;2023-04-09T02:08:06;54.63;;;29.07;;
15968;SDS011;8085;53.472;9.794;2023-04-09T02:10:36;55.67;;;29.50;;
15968;SDS011;8085;53.472;9.794;2023-04-09T02:13:05;56.17;;;29.13;;
15968;SDS011;8085;53.472;9.794;2023-04-09T02:15:40;53.93;;;29.03;;
15968;SDS011;8085;53.472;9.794;2023-04-09T02:18:20;56.03;;;29.43;;
15968;SDS011;8085;53.472;9.794;2023-04-09T02:20:48;53.37;;;28.50;;
15968;SDS011;8085;53.472;9.794;2023-04-09T02:23:15;56.10;;;28.80;;
15968;SDS011;8085;53.472;9.794;2023-04-09T02:25:42;52.83;;;27.97;;
15968;SDS011;8085;53.472;9.794;2023-04-09T02:28:09;54.63;;;27.70;;
15968;SDS011;8085;53.472;9.794;2023-04-09T02:30:36;46.37;;;25.40;;
15968;SDS011;8085;53.472;9.794;2023-04-09T02:33:03;54.70;;;28.70;;
15968;SDS011;8085;53.472;9.794;2023-04-09T02:35:32;47.40;;;27.00;;
15968;SDS011;8085;53.472;9.794;2023-04-09T02:37:58;48.90;;;24.73;;
15968;SDS011;8085;53.472;9.794;2023-04-09T02:40:26;54.07;;;27.80;;
15968;SDS011;8085;53.472;9.794;2023-04-09T02:42:53;56.13;;;29.20;;
15968;SDS011;8085;53.472;9.794;2023-04-09T02:45:20;52.23;;;29.03;;
15968;SDS011;8085;53.472;9.794;2023-04-09T02:47:47;55.43;;;29.07;;
15968;SDS011;8085;53.472;9.794;2023-04-09T02:50:13;48.60;;;28.03;;
15968;SDS011;8085;53.472;9.794;2023-04-09T02:52:42;58.20;;;29.00;;
15968;SDS011;8085;53.472;9.794;2023-04-09T02:55:11;57.37;;;29.67;;
15968;SDS011;8085;53.472;9.794;2023-04-09T02:57:38;63.70;;;30.87;;
15968;SDS011;8085;53.472;9.794;2023-04-09T03:00:06;63.90;;;30.77;;
15968;SDS011;8085;53.472;9.794;2023-04-09T03:02:33;61.80;;;31.03;;
15968;SDS011;8085;53.472;9.794;2023-04-09T03:05:00;54.33;;;30.03;;
15968;SDS011;8085;53.472;9.794;2023-04-09T03:07:27;53.17;;;31.10;;
15968;SDS011;8085;53.472;9.794;2023-04-09T03:09:55;60.33;;;31.23;;
15968;SDS011;8085;53.472;9.794;2023-04-09T03:12:22;60.23;;;31.70;;
15968;SDS011;8085;53.472;9.794;2023-04-09T03:14:49;64.97;;;30.10;;
15968;SDS011;8085;53.472;9.794;2023-04-09T03:17:16;57.07;;;29.77;;
15968;SDS011;8085;53.472;9.794;2023-04-09T03:19:43;59.37;;;30.33;;
15968;SDS011;8085;53.472;9.794;2023-04-09T03:22:10;60.37;;;31.10;;
15968;SDS011;8085;53.472;9.794;2023-04-09T03:24:37;55.57;;;29.87;;
15968;SDS011;8085;53.472;9.794;2023-04-09T03:27:05;55.37;;;29.77;;
15968;SDS011;8085;53.472;9.794;2023-04-09T03:29:32;57.07;;;29.97;;
15968;SDS011;8085;53.472;9.794;2023-04-09T03:31:59;59.00;;;29.13;;
15968;SDS011;8085;53.472;9.794;2023-04-09T03:34:26;49.93;;;27.77;;
15968;SDS011;8085;53.472;9.794;2023-04-09T03:36:53;50.43;;;26.40;;
15968;SDS011;8085;53.472;9.794;2023-04-09T03:39:20;51.63;;;27.87;;
15968;SDS011;8085;53.472;9.794;2023-04-09T03:41:47;49.97;;;27.57;;
15968;SDS011;8085;53.472;9.794;2023-04-09T03:44:15;58.50;;;29.70;;
15968;SDS011;8085;53.472;9.794;2023-04-09T03:46:42;57.90;;;30.20;;
15968;SDS011;8085;53.472;9.794;2023-04-09T03:49:08;57.20;;;29.47;;
15968;SDS011;8085;53.472;9.794;2023-04-09T03:51:35;63.77;;;31.00;;
15968;SDS011;8085;53.472;9.794;2023-04-09T03:54:02;53.30;;;29.93;;
15968;SDS011;8085;53.472;9.794;2023-04-09T03:56:29;58.90;;;31.40;;
15968;SDS011;8085;53.472;9.794;2023-04-09T03:58:56;59.57;;;30.63;;
15968;SDS011;8085;53.472;9.794;2023-04-09T04:01:24;60.10;;;31.60;;
15968;SDS011;8085;53.472;9.794;2023-04-09T04:03:51;54.43;;;28.90;;
15968;SDS011;8085;53.472;9.794;2023-04-09T04:06:18;56.13;;;31.33;;
15968;SDS011;8085;53.472;9.794;2023-04-09T04:08:45;57.73;;;30.50;;
15968;SDS011;8085;53.472;9.794;2023-04-09T04:11:12;52.43;;;29.00;;
15968;SDS011;8085;53.472;9.794;2023-04-09T04:13:39;55.40;;;30.60;;
15968;SDS011;8085;53.472;9.794;2023-04-09T04:16:06;56.23;;;29.80;;
15968;SDS011;8085;53.472;9.794;2023-04-09T04:18:35;50.63;;;27.80;;
15968;SDS011;8085;53.472;9.794;2023-04-09T04:21:03;55.83;;;29.23;;
15968;SDS011;8085;53.472;9.794;2023-04-09T04:23:30;60.97;;;30.17;;
15968;SDS011;8085;53.472;9.794;2023-04-09T04:25:58;56.83;;;28.43;;
15968;SDS011;8085;53.472;9.794;2023-04-09T04:28:25;57.93;;;29.60;;
15968;SDS011;8085;53.472;9.794;2023-04-09T04:30:52;56.03;;;28.33;;
15968;SDS011;8085;53.472;9.794;2023-04-09T04:33:19;51.53;;;26.43;;
15968;SDS011;8085;53.472;9.794;2023-04-09T04:35:47;47.47;;;25.73;;
15968;SDS011;8085;53.472;9.794;2023-04-09T04:38:14;41.90;;;23.73;;
15968;SDS011;8085;53.472;9.794;2023-04-09T04:40:41;46.33;;;26.10;;
15968;SDS011;8085;53.472;9.794;2023-04-09T04:43:08;44.33;;;24.23;;
15968;SDS011;8085;53.472;9.794;2023-04-09T04:45:35;42.87;;;23.60;;
15968;SDS011;8085;53.472;9.794;2023-04-09T04:48:02;40.00;;;23.03;;
15968;SDS011;8085;53.472;9.794;2023-04-09T04:50:33;40.23;;;22.53;;
15968;SDS011;8085;53.472;9.794;2023-04-09T04:53:04;42.40;;;22.30;;
15968;SDS011;8085;53.472;9.794;2023-04-09T04:55:34;37.13;;;20.67;;
15968;SDS011;8085;53.472;9.794;2023-04-09T04:58:01;39.13;;;22.30;;
15968;SDS011;8085;53.472;9.794;2023-04-09T05:00:28;39.27;;;20.73;;
15968;SDS011;8085;53.472;9.794;2023-04-09T05:02:56;39.90;;;21.43;;
15968;SDS011;8085;53.472;9.794;2023-04-09T05:05:23;35.23;;;21.90;;
15968;SDS011;8085;53.472;9.794;2023-04-09T05:07:55;40.60;;;21.47;;
15968;SDS011;8085;53.472;9.794;2023-04-09T05:10:23;37.60;;;21.43;;
15968;SDS011;8085;53.472;9.794;2023-04-09T05:12:56;37.90;;;21.73;;
15968;SDS011;8085;53.472;9.794;2023-04-09T05:15:22;41.00;;;21.47;;
15968;SDS011;8085;53.472;9.794;2023-04-09T05:17:49;38.23;;;22.07;;
15968;SDS011;8085;53.472;9.794;2023-04-09T05:23:01;43.13;;;23.00;;
15968;SDS011;8085;53.472;9.794;2023-04-09T05:25:29;40.57;;;21.90;;
15968;SDS011;8085;53.472;9.794;2023-04-09T05:27:56;44.83;;;23.73;;
15968;SDS011;8085;53.472;9.794;2023-04-09T05:30:24;43.50;;;23.70;;
15968;SDS011;8085;53.472;9.794;2023-04-09T05:32:51;44.40;;;24.50;;
15968;SDS011;8085;53.472;9.794;2023-04-09T05:35:20;45.90;;;24.33;;
15968;SDS011;8085;53.472;9.794;2023-04-09T05:37:47;43.70;;;25.73;;
15968;SDS011;8085;53.472;9.794;2023-04-09T05:40:14;42.57;;;24.30;;
15968;SDS011;8085;53.472;9.794;2023-04-09T05:42:43;45.03;;;24.80;;
15968;SDS011;8085;53.472;9.794;2023-04-09T05:45:12;48.00;;;25.47;;
15968;SDS011;8085;53.472;9.794;2023-04-09T05:47:42;49.43;;;26.63;;
15968;SDS011;8085;53.472;9.794;2023-04-09T05:50:09;55.40;;;27.33;;
15968;SDS011;8085;53.472;9.794;2023-04-09T05:52:36;54.87;;;28.30;;
15968;SDS011;8085;53.472;9.794;2023-04-09T05:55:09;51.67;;;27.97;;
15968;SDS011;8085;53.472;9.794;2023-04-09T05:57:39;53.77;;;29.43;;
15968;SDS011;8085;53.472;9.794;2023-04-09T06:00:09;53.60;;;31.97;;
15968;SDS011;8085;53.472;9.794;2023-04-09T06:02:37;66.43;;;33.13;;
15968;SDS011;8085;53.472;9.794;2023-04-09T06:05:04;60.03;;;32.10;;
15968;SDS011;8085;53.472;9.794;2023-04-09T06:07:32;58.87;;;31.20;;
15968;SDS011;8085;53.472;9.794;2023-04-09T06:09:59;57.23;;;31.53;;
15968;SDS011;8085;53.472;9.794;2023-04-09T06:12:26;54.97;;;29.70;;
15968;SDS011;8085;53.472;9.794;2023-04-09T06:14:53;56.17;;;29.40;;
15968;SDS011;8085;53.472;9.794;2023-04-09T06:17:21;60.80;;;30.87;;
15968;SDS011;8085;53.472;9.794;2023-04-09T06:19:50;51.20;;;28.40;;
15968;SDS011;8085;53.472;9.794;2023-04-09T06:22:19;57.50;;;29.63;;
15968;SDS011;8085;53.472;9.794;2023-04-09T06:24:46;59.13;;;30.87;;
15968;SDS011;8085;53.472;9.794;2023-04-09T06:27:13;58.53;;;30.33;;
15968;SDS011;8085;53.472;9.794;2023-04-09T06:29:40;53.97;;;28.50;;
15968;SDS011;8085;53.472;9.794;2023-04-09T06:32:13;56.67;;;29.27;;
15968;SDS011;8085;53.472;9.794;2023-04-09T06:34:41;58.63;;;30.20;;
15968;SDS011;8085;53.472;9.794;2023-04-09T06:37:08;62.23;;;30.53;;
15968;SDS011;8085;53.472;9.794;2023-04-09T06:39:43;60.03;;;30.57;;
15968;SDS011;8085;53.472;9.794;2023-04-09T06:42:13;55.13;;;30.70;;
15968;SDS011;8085;53.472;9.794;2023-04-09T06:44:46;54.57;;;29.60;;
15968;SDS011;8085;53.472;9.794;2023-04-09T06:47:15;52.43;;;28.53;;
15968;SDS011;8085;53.472;9.794;2023-04-09T06:49:47;55.53;;;28.60;;
15968;SDS011;8085;53.472;9.794;2023-04-09T06:52:17;51.83;;;27.53;;
15968;SDS011;8085;53.472;9.794;2023-04-09T06:54:47;54.27;;;27.93;;
15968;SDS011;8085;53.472;9.794;2023-04-09T06:57:17;49.37;;;26.13;;
15968;SDS011;8085;53.472;9.794;2023-04-09T06:59:44;53.77;;;26.77;;
15968;SDS011;8085;53.472;9.794;2023-04-09T07:02:13;47.67;;;26.53;;
15968;SDS011;8085;53.472;9.794;2023-04-09T07:04:40;53.87;;;26.90;;
15968;SDS011;8085;53.472;9.794;2023-04-09T07:07:13;48.00;;;25.57;;
15968;SDS011;8085;53.472;9.794;2023-04-09T07:09:41;42.33;;;24.80;;
15968;SDS011;8085;53.472;9.794;2023-04-09T07:12:08;40.47;;;21.87;;
15968;SDS011;8085;53.472;9.794;2023-04-09T07:14:35;43.13;;;22.13;;
15968;SDS011;8085;53.472;9.794;2023-04-09T07:17:02;37.43;;;21.07;;
15968;SDS011;8085;53.472;9.794;2023-04-09T07:19:34;47.60;;;27.30;;
15968;SDS011;8085;53.472;9.794;2023-04-09T07:22:01;48.43;;;26.87;;
15968;SDS011;8085;53.472;9.794;2023-04-09T07:24:29;38.83;;;22.33;;
15968;SDS011;8085;53.472;9.794;2023-04-09T07:26:56;30.67;;;17.93;;
15968;SDS011;8085;53.472;9.794;2023-04-09T07:29:23;46.00;;;25.37;;
15968;SDS011;8085;53.472;9.794;2023-04-09T07:31:51;55.57;;;29.37;;
15968;SDS011;8085;53.472;9.794;2023-04-09T07:34:18;55.83;;;29.87;;
15968;SDS011;8085;53.472;9.794;2023-04-09T07:36:47;53.03;;;28.90;;
15968;SDS011;8085;53.472;9.794;2023-04-09T07:39:15;58.67;;;28.93;;
15968;SDS011;8085;53.472;9.794;2023-04-09T07:41:43;55.60;;;28.77;;
15968;SDS011;8085;53.472;9.794;2023-04-09T07:44:12;39.70;;;24.20;;
15968;SDS011;8085;53.472;9.794;2023-04-09T07:46:39;39.03;;;21.73;;
15968;SDS011;8085;53.472;9.794;2023-04-09T07:49:06;48.47;;;26.23;;
15968;SDS011;8085;53.472;9.794;2023-04-09T07:51:33;48.57;;;27.63;;
15968;SDS011;8085;53.472;9.794;2023-04-09T07:54:01;52.03;;;27.57;;
15968;SDS011;8085;53.472;9.794;2023-04-09T07:56:29;41.97;;;24.63;;
15968;SDS011;8085;53.472;9.794;2023-04-09T07:58:57;47.00;;;24.53;;
15968;SDS011;8085;53.472;9.794;2023-04-09T08:01:24;41.93;;;23.87;;
15968;SDS011;8085;53.472;9.794;2023-04-09T08:03:51;43.60;;;24.43;;
15968;SDS011;8085;53.472;9.794;2023-04-09T08:06:19;41.03;;;24.50;;
15968;SDS011;8085;53.472;9.794;2023-04-09T08:08:47;39.70;;;23.33;;
15968;SDS011;8085;53.472;9.794;2023-04-09T08:11:20;42.70;;;23.87;;
15968;SDS011;8085;53.472;9.794;2023-04-09T08:13:49;40.07;;;22.80;;
15968;SDS011;8085;53.472;9.794;2023-04-09T08:16:22;39.07;;;22.63;;
15968;SDS011;8085;53.472;9.794;2023-04-09T08:18:54;43.97;;;22.57;;
15968;SDS011;8085;53.472;9.794;2023-04-09T08:21:30;39.37;;;23.43;;
15968;SDS011;8085;53.472;9.794;2023-04-09T08:23:57;40.83;;;22.33;;
15968;SDS011;8085;53.472;9.794;2023-04-09T08:26:28;40.23;;;22.97;;
15968;SDS011;8085;53.472;9.794;2023-04-09T08:28:55;38.70;;;22.83;;
15968;SDS011;8085;53.472;9.794;2023-04-09T08:31:23;40.60;;;21.90;;
15968;SDS011;8085;53.472;9.794;2023-04-09T08:33:54;34.40;;;21.63;;
15968;SDS011;8085;53.472;9.794;2023-04-09T08:36:21;36.00;;;22.20;;
15968;SDS011;8085;53.472;9.794;2023-04-09T08:38:48;36.23;;;22.33;;
15968;SDS011;8085;53.472;9.794;2023-04-09T08:41:19;36.10;;;20.47;;
15968;SDS011;8085;53.472;9.794;2023-04-09T08:43:49;36.13;;;21.60;;
15968;SDS011;8085;53.472;9.794;2023-04-09T08:46:17;36.20;;;21.80;;
15968;SDS011;8085;53.472;9.794;2023-04-09T08:48:46;36.47;;;21.50;;
15968;SDS011;8085;53.472;9.794;2023-04-09T08:51:22;39.20;;;21.70;;
15968;SDS011;8085;53.472;9.794;2023-04-09T08:53:54;37.23;;;20.80;;
15968;SDS011;8085;53.472;9.794;2023-04-09T08:56:23;42.20;;;20.93;;
15968;SDS011;8085;53.472;9.794;2023-04-09T08:58:51;39.50;;;21.87;;
15968;SDS011;8085;53.472;9.794;2023-04-09T09:01:20;41.10;;;22.13;;
15968;SDS011;8085;53.472;9.794;2023-04-09T09:04:02;35.07;;;20.70;;
15968;SDS011;8085;53.472;9.794;2023-04-09T09:06:30;37.00;;;21.17;;
15968;SDS011;8085;53.472;9.794;2023-04-09T09:09:02;36.90;;;20.33;;
15968;SDS011;8085;53.472;9.794;2023-04-09T09:11:31;31.40;;;19.60;;
15968;SDS011;8085;53.472;9.794;2023-04-09T09:14:02;36.20;;;20.07;;
15968;SDS011;8085;53.472;9.794;2023-04-09T09:16:31;33.60;;;20.10;;
15968;SDS011;8085;53.472;9.794;2023-04-09T09:19:01;37.63;;;20.37;;
15968;SDS011;8085;53.472;9.794;2023-04-09T09:21:32;37.30;;;20.43;;
15968;SDS011;8085;53.472;9.794;2023-04-09T09:24:07;32.80;;;19.87;;
15968;SDS011;8085;53.472;9.794;2023-04-09T09:26:45;32.67;;;18.93;;
15968;SDS011;8085;53.472;9.794;2023-04-09T09:29:12;32.53;;;20.43;;
15968;SDS011;8085;53.472;9.794;2023-04-09T09:31:49;35.07;;;21.23;;
15968;SDS011;8085;53.472;9.794;2023-04-09T09:34:18;33.17;;;20.10;;
15968;SDS011;8085;53.472;9.794;2023-04-09T09:36:48;32.93;;;19.70;;
15968;SDS011;8085;53.472;9.794;2023-04-09T09:39:21;34.80;;;20.60;;
15968;SDS011;8085;53.472;9.794;2023-04-09T09:42:05;33.47;;;19.83;;
15968;SDS011;8085;53.472;9.794;2023-04-09T09:44:33;33.97;;;19.17;;
15968;SDS011;8085;53.472;9.794;2023-04-09T09:47:00;32.90;;;19.60;;
15968;SDS011;8085;53.472;9.794;2023-04-09T09:49:30;33.30;;;20.80;;
15968;SDS011;8085;53.472;9.794;2023-04-09T09:51:58;33.90;;;19.60;;
15968;SDS011;8085;53.472;9.794;2023-04-09T09:54:28;34.97;;;20.60;;
15968;SDS011;8085;53.472;9.794;2023-04-09T09:57:03;33.83;;;20.03;;
15968;SDS011;8085;53.472;9.794;2023-04-09T09:59:36;34.83;;;20.07;;
15968;SDS011;8085;53.472;9.794;2023-04-09T10:02:13;34.17;;;19.77;;
15968;SDS011;8085;53.472;9.794;2023-04-09T10:04:49;30.47;;;19.20;;
15968;SDS011;8085;53.472;9.794;2023-04-09T10:07:18;31.47;;;19.70;;
15968;SDS011;8085;53.472;9.794;2023-04-09T10:09:48;31.73;;;18.57;;
15968;SDS011;8085;53.472;9.794;2023-04-09T10:12:17;32.83;;;19.43;;
15968;SDS011;8085;53.472;9.794;2023-04-09T10:14:47;28.13;;;18.40;;
15968;SDS011;8085;53.472;9.794;2023-04-09T10:17:16;32.43;;;19.70;;
15968;SDS011;8085;53.472;9.794;2023-04-09T10:19:46;29.07;;;18.13;;
15968;SDS011;8085;53.472;9.794;2023-04-09T10:22:20;36.07;;;19.17;;
15968;SDS011;8085;53.472;9.794;2023-04-09T10:24:51;31.73;;;18.43;;
15968;SDS011;8085;53.472;9.794;2023-04-09T10:27:19;27.93;;;17.27;;
15968;SDS011;8085;53.472;9.794;2023-04-09T10:29:47;28.90;;;17.90;;
15968;SDS011;8085;53.472;9.794;2023-04-09T10:32:17;28.80;;;18.07;;
15968;SDS011;8085;53.472;9.794;2023-04-09T10:34:51;31.50;;;18.13;;
15968;SDS011;8085;53.472;9.794;2023-04-09T10:37:23;34.53;;;18.83;;
15968;SDS011;8085;53.472;9.794;2023-04-09T10:39:52;26.10;;;17.57;;
15968;SDS011;8085;53.472;9.794;2023-04-09T10:42:28;30.80;;;17.43;;
15968;SDS011;8085;53.472;9.794;2023-04-09T10:45:05;26.80;;;17.73;;
15968;SDS011;8085;53.472;9.794;2023-04-09T10:47:45;28.63;;;18.37;;
15968;SDS011;8085;53.472;9.794;2023-04-09T10:50:17;32.00;;;18.70;;
15968;SDS011;8085;53.472;9.794;2023-04-09T10:52:46;30.63;;;18.37;;
15968;SDS011;8085;53.472;9.794;2023-04-09T10:55:29;26.20;;;17.67;;
15968;SDS011;8085;53.472;9.794;2023-04-09T10:57:59;33.30;;;18.37;;
15968;SDS011;8085;53.472;9.794;2023-04-09T11:00:26;30.43;;;17.77;;
15968;SDS011;8085;53.472;9.794;2023-04-09T11:02:57;27.30;;;17.03;;
15968;SDS011;8085;53.472;9.794;2023-04-09T11:05:45;29.93;;;18.33;;
15968;SDS011;8085;53.472;9.794;2023-04-09T11:08:14;30.70;;;17.70;;
15968;SDS011;8085;53.472;9.794;2023-04-09T11:10:42;27.30;;;18.17;;
15968;SDS011;8085;53.472;9.794;2023-04-09T11:13:11;27.57;;;18.07;;
15968;SDS011;8085;53.472;9.794;2023-04-09T11:15:42;26.67;;;17.63;;
15968;SDS011;8085;53.472;9.794;2023-04-09T11:18:12;27.57;;;17.27;;
15968;SDS011;8085;53.472;9.794;2023-04-09T11:20:40;28.50;;;18.03;;
15968;SDS011;8085;53.472;9.794;2023-04-09T11:23:09;28.43;;;17.83;;
15968;SDS011;8085;53.472;9.794;2023-04-09T11:25:37;29.10;;;17.93;;
15968;SDS011;8085;53.472;9.794;2023-04-09T11:28:06;30.10;;;17.70;;
15968;SDS011;8085;53.472;9.794;2023-04-09T11:30:33;29.27;;;18.20;;
15968;SDS011;8085;53.472;9.794;2023-04-09T11:33:01;28.00;;;18.13;;
15968;SDS011;8085;53.472;9.794;2023-04-09T11:35:28;30.70;;;18.10;;
15968;SDS011;8085;53.472;9.794;2023-04-09T11:37:55;28.37;;;18.30;;
15968;SDS011;8085;53.472;9.794;2023-04-09T11:40:24;28.23;;;19.03;;
15968;SDS011;8085;53.472;9.794;2023-04-09T11:42:53;30.23;;;17.87;;
15968;SDS011;8085;53.472;9.794;2023-04-09T11:45:22;28.70;;;18.70;;
15968;SDS011;8085;53.472;9.794;2023-04-09T11:47:50;27.97;;;18.53;;
15968;SDS011;8085;53.472;9.794;2023-04-09T11:50:18;27.83;;;18.20;;
15968;SDS011;8085;53.472;9.794;2023-04-09T11:52:45;29.73;;;18.53;;
15968;SDS011;8085;53.472;9.794;2023-04-09T11:55:21;30.67;;;19.10;;
15968;SDS011;8085;53.472;9.794;2023-04-09T11:57:51;26.20;;;17.63;;
15968;SDS011;8085;53.472;9.794;2023-04-09T12:00:19;31.07;;;19.27;;
15968;SDS011;8085;53.472;9.794;2023-04-09T12:02:46;28.37;;;18.27;;
15968;SDS011;8085;53.472;9.794;2023-04-09T12:05:19;28.47;;;18.83;;
15968;SDS011;8085;53.472;9.794;2023-04-09T12:07:48;28.60;;;19.17;;
15968;SDS011;8085;53.472;9.794;2023-04-09T12:10:16;26.67;;;17.57;;
15968;SDS011;8085;53.472;9.794;2023-04-09T12:12:45;32.43;;;19.43;;
15968;SDS011;8085;53.472;9.794;2023-04-09T12:15:19;32.90;;;20.03;;
15968;SDS011;8085;53.472;9.794;2023-04-09T12:17:47;30.37;;;19.40;;
15968;SDS011;8085;53.472;9.794;2023-04-09T12:20:25;27.13;;;17.97;;
15968;SDS011;8085;53.472;9.794;2023-04-09T12:22:53;26.57;;;17.93;;
15968;SDS011;8085;53.472;9.794;2023-04-09T12:25:20;27.63;;;17.97;;
15968;SDS011;8085;53.472;9.794;2023-04-09T12:27:48;28.50;;;18.37;;
15968;SDS011;8085;53.472;9.794;2023-04-09T12:30:15;26.70;;;18.20;;
15968;SDS011;8085;53.472;9.794;2023-04-09T12:32:42;24.43;;;17.80;;
15968;SDS011;8085;53.472;9.794;2023-04-09T12:35:09;26.90;;;17.03;;
15968;SDS011;8085;53.472;9.794;2023-04-09T12:37:37;26.17;;;16.53;;
15968;SDS011;8085;53.472;9.794;2023-04-09T12:40:04;27.07;;;17.17;;
15968;SDS011;8085;53.472;9.794;2023-04-09T12:42:31;26.23;;;15.63;;
15968;SDS011;8085;53.472;9.794;2023-04-09T12:45:00;25.07;;;17.10;;
15968;SDS011;8085;53.472;9.794;2023-04-09T12:47:26;24.60;;;16.57;;
15968;SDS011;8085;53.472;9.794;2023-04-09T12:49:53;27.63;;;16.80;;
15968;SDS011;8085;53.472;9.794;2023-04-09T12:52:20;27.40;;;16.47;;
15968;SDS011;8085;53.472;9.794;2023-04-09T12:54:48;24.73;;;16.10;;
15968;SDS011;8085;53.472;9.794;2023-04-09T12:57:15;24.87;;;16.10;;
15968;SDS011;8085;53.472;9.794;2023-04-09T12:59:42;23.83;;;15.63;;
15968;SDS011;8085;53.472;9.794;2023-04-09T13:02:11;25.07;;;16.60;;
15968;SDS011;8085;53.472;9.794;2023-04-09T13:04:38;23.67;;;16.03;;
15968;SDS011;8085;53.472;9.794;2023-04-09T13:07:05;25.63;;;17.27;;
15968;SDS011;8085;53.472;9.794;2023-04-09T13:09:32;24.53;;;16.67;;
15968;SDS011;8085;53.472;9.794;2023-04-09T13:12:00;25.43;;;15.93;;
15968;SDS011;8085;53.472;9.794;2023-04-09T13:14:27;24.07;;;15.70;;
15968;SDS011;8085;53.472;9.794;2023-04-09T13:16:54;23.60;;;14.80;;
15968;SDS011;8085;53.472;9.794;2023-04-09T13:19:23;19.67;;;14.57;;
15968;SDS011;8085;53.472;9.794;2023-04-09T13:21:50;20.90;;;13.87;;
15968;SDS011;8085;53.472;9.794;2023-04-09T13:24:17;16.37;;;12.00;;
15968;SDS011;8085;53.472;9.794;2023-04-09T13:26:44;16.47;;;11.20;;
15968;SDS011;8085;53.472;9.794;2023-04-09T13:29:11;17.40;;;11.87;;
15968;SDS011;8085;53.472;9.794;2023-04-09T13:31:38;17.27;;;11.57;;
15968;SDS011;8085;53.472;9.794;2023-04-09T13:34:05;22.03;;;12.93;;
15968;SDS011;8085;53.472;9.794;2023-04-09T13:36:34;19.10;;;12.43;;
15968;SDS011;8085;53.472;9.794;2023-04-09T13:39:03;21.07;;;13.20;;
15968;SDS011;8085;53.472;9.794;2023-04-09T13:41:31;18.37;;;12.27;;
15968;SDS011;8085;53.472;9.794;2023-04-09T13:43:58;18.90;;;12.87;;
15968;SDS011;8085;53.472;9.794;2023-04-09T13:46:27;19.87;;;13.37;;
15968;SDS011;8085;53.472;9.794;2023-04-09T13:48:55;16.43;;;12.03;;
15968;SDS011;8085;53.472;9.794;2023-04-09T13:51:24;16.97;;;12.37;;
15968;SDS011;8085;53.472;9.794;2023-04-09T13:53:55;17.43;;;12.63;;
15968;SDS011;8085;53.472;9.794;2023-04-09T13:56:22;19.37;;;13.33;;
15968;SDS011;8085;53.472;9.794;2023-04-09T13:58:49;16.90;;;12.50;;
15968;SDS011;8085;53.472;9.794;2023-04-09T14:03:51;18.27;;;12.57;;
15968;SDS011;8085;53.472;9.794;2023-04-09T14:06:18;18.37;;;12.70;;
15968;SDS011;8085;53.472;9.794;2023-04-09T14:08:45;18.40;;;12.23;;
15968;SDS011;8085;53.472;9.794;2023-04-09T14:11:13;20.23;;;12.33;;
15968;SDS011;8085;53.472;9.794;2023-04-09T14:14:42;18.90;;;12.90;;
15968;SDS011;8085;53.472;9.794;2023-04-09T14:17:09;21.13;;;14.00;;
15968;SDS011;8085;53.472;9.794;2023-04-09T14:19:36;18.80;;;13.20;;
15968;SDS011;8085;53.472;9.794;2023-04-09T14:22:03;19.67;;;14.43;;
15968;SDS011;8085;53.472;9.794;2023-04-09T14:24:31;19.27;;;13.63;;
15968;SDS011;8085;53.472;9.794;2023-04-09T15:16:45;21.33;;;14.47;;
15968;SDS011;8085;53.472;9.794;2023-04-09T15:19:39;22.77;;;14.23;;
15968;SDS011;8085;53.472;9.794;2023-04-09T15:22:37;19.97;;;13.23;;
15968;SDS011;8085;53.472;9.794;2023-04-09T15:26:33;21.00;;;14.10;;
15968;SDS011;8085;53.472;9.794;2023-04-09T15:48:34;19.53;;;12.87;;
15968;SDS011;8085;53.472;9.794;2023-04-09T15:56:02;19.73;;;12.23;;
15968;SDS011;8085;53.472;9.794;2023-04-09T16:37:33;16.03;;;12.13;;
15968;SDS011;8085;53.472;9.794;2023-04-09T16:40:39;18.67;;;12.73;;
15968;SDS011;8085;53.472;9.794;2023-04-09T16:43:55;19.93;;;12.87;;
15968;SDS011;8085;53.472;9.794;2023-04-09T16:47:07;19.20;;;12.90;;